Accueil
METAR-TAF:

METAR-TAF

Aéroports :

Aéroport de Séville

Séville, Espagne

latitude: 37-25N, longitude: 005-54W, altitude: 34 m

Observation

Le bulletin a été fait il y a 10 minutes, à 18:00 UTC
Vent 7 kt de nord-est avec des rafales jusqu'à 17 kt
Température 35°C
Humidité 16%
Pression 1014 hPa
Visibilité 10 km ou plus
pas de nuages en-dessous de 1500 mètres et pas de cumulonimbus.

METAR: LEZL 241800Z 04007G17KT CAVOK 35/05 Q1014 NOSIG

Heure: 20:10 (18:10 UTC)

Prévision

Le bulletin a été fait il y a 4 heures et 10 minutes, à 14:00 UTC
Prévision valable du 24 à 15 UTC au 25 à 15 UTC
Vent 5 kt de est/nord-est
Visibilité 10 km ou plus
pas de nuages en-dessous de 1500 mètres et pas de cumulonimbus.
Temporairement
du 24 à 19 UTC au 24 à 23 UTC
Vent 10 kt de sud-ouest

TAF: LEZL 241400Z 2415/2515 07005KT CAVOK TX36/2515Z TN18/2505Z TEMPO 2419/2423 22010KT

Observations et prévisions météorologiques de plus de 4000 aéroports (messages METAR et TAF).

Les stations disponibles sont représentées par des disques jaunes et rouges sur la carte.

Passer la souris dessus pour voir le nom de la station.

Cliquer dessus pour voir les observations et prévisions météorologiques.

Pour changer de carte: cliquez sur les boutons verts avec une croix noire pour zoomer, sur le bouton vert avec un tiret pour effectuer un zoom arrière, ou sur les flèches vertes pour les cartes adjacentes.


METAR-TAF: